Time;durP1;ratioP1;P1;durP2;ratioP2;P2;SDS_P1;SDS_P2;PMS_P1;PMS_P2;Temp;Humidity;BMP_temperature;BMP_pressure;BME280_temperature;BME280_humidity;BME280_pressure;Samples;Min_cycle;Max_cycle;Signal;HPM_P1;HPM_P2
2022/09/23 00:02:23;;;;;;;33.42;15.43;;;;;;;;;;10288612;23;20030;-87
2022/09/23 00:06:26;;;;;;;25.35;13.57;;;;;;;;;;10290064;23;20410;-86
2022/09/23 00:10:31;;;;;;;27.65;13.02;;;;;;;;;;10289032;23;20096;-87
2022/09/23 00:14:33;;;;;;;25.70;13.07;;;;;;;;;;10303593;23;20058;-86
2022/09/23 00:18:38;;;;;;;19.52;11.18;;;;;;;;;;10340126;23;20383;-86
2022/09/23 00:22:41;;;;;;;21.60;10.57;;;;;;;;;;10313241;23;20353;-88
2022/09/23 00:26:45;;;;;;;22.35;10.90;;;;;;;;;;10339718;23;20016;-88
2022/09/23 00:30:49;;;;;;;22.45;11.43;;;;;;;;;;10339073;23;20016;-87
2022/09/23 00:34:55;;;;;;;17.75;10.85;;;;;;;;;;10339915;23;20016;-87
2022/09/23 00:39:01;;;;;;;20.83;10.23;;;;;;;;;;10312720;23;20024;-87
2022/09/23 00:43:06;;;;;;;17.23;10.45;;;;;;;;;;10312903;23;20452;-87
2022/09/23 00:47:21;;;;;;;18.55;10.57;;;;;;;;;;10339322;23;20403;-87
2022/09/23 01:09:04;;;;;;;23.02;12.63;;;;;;;;;;10338915;23;20070;-86
2022/09/23 01:13:15;;;;;;;23.77;13.00;;;;;;;;;;10339022;23;20051;-86
2022/09/23 01:17:29;;;;;;;22.50;11.88;;;;;;;;;;10355863;23;20043;-87
2022/09/23 01:21:47;;;;;;;21.50;10.75;;;;;;;;;;10312027;23;20020;-88
2022/09/23 01:26:07;;;;;;;20.23;11.85;;;;;;;;;;10311886;23;20020;-87
2022/09/23 01:30:18;;;;;;;21.35;11.55;;;;;;;;;;10312165;23;20024;-87
2022/09/23 01:34:27;;;;;;;21.00;10.57;;;;;;;;;;10355389;23;20016;-87
2022/09/23 01:38:42;;;;;;;28.65;15.15;;;;;;;;;;10311926;23;20024;-86
2022/09/23 01:42:54;;;;;;;25.50;14.23;;;;;;;;;;10338547;23;20024;-87
2022/09/23 01:47:05;;;;;;;18.45;10.98;;;;;;;;;;10312144;23;20383;-87
2022/09/23 01:51:15;;;;;;;20.73;10.05;;;;;;;;;;10312055;23;20028;-87
2022/09/23 01:55:23;;;;;;;23.73;10.10;;;;;;;;;;10311471;23;20020;-88
2022/09/23 01:59:31;;;;;;;25.33;11.25;;;;;;;;;;10311725;23;20395;-86
2022/09/23 02:03:37;;;;;;;24.83;13.18;;;;;;;;;;10311292;23;20452;-87
2022/09/23 02:07:49;;;;;;;21.08;10.85;;;;;;;;;;10312030;23;20502;-87
2022/09/23 02:11:55;;;;;;;22.63;11.23;;;;;;;;;;10311471;23;20048;-87
2022/09/23 02:16:01;;;;;;;17.73;9.50;;;;;;;;;;10311132;23;20066;-87
2022/09/23 02:20:06;;;;;;;19.58;10.32;;;;;;;;;;10354737;23;20042;-87
2022/09/23 02:24:18;;;;;;;24.30;11.07;;;;;;;;;;10311243;23;20516;-87
2022/09/23 02:28:31;;;;;;;19.73;10.27;;;;;;;;;;10354629;23;20027;-86
2022/09/23 02:32:40;;;;;;;34.00;16.42;;;;;;;;;;10310764;23;20027;-87
2022/09/23 02:36:52;;;;;;;66.47;23.35;;;;;;;;;;10308887;23;20111;-87
2022/09/23 02:41:20;;;;;;;40.92;17.80;;;;;;;;;;10292208;22;20020;-86
2022/09/23 02:46:14;;;;;;;48.63;18.67;;;;;;;;;;10325506;22;20028;-86
2022/09/23 02:50:47;;;;;;;40.72;15.60;;;;;;;;;;10289132;23;20036;-87
2022/09/23 02:55:05;;;;;;;47.08;16.73;;;;;;;;;;10222501;23;20031;-87
2022/09/23 02:59:16;;;;;;;35.30;13.05;;;;;;;;;;10353590;23;20383;-88
2022/09/23 03:03:33;;;;;;;35.53;13.52;;;;;;;;;;10310463;23;20660;-86
2022/09/23 03:07:44;;;;;;;26.83;11.93;;;;;;;;;;10354118;23;20024;-87
2022/09/23 03:11:53;;;;;;;32.92;11.40;;;;;;;;;;10310500;23;20460;-87
2022/09/23 03:16:09;;;;;;;39.75;12.43;;;;;;;;;;10309366;23;20023;-87
2022/09/23 03:20:18;;;;;;;35.03;13.80;;;;;;;;;;10311155;23;20024;-87
2022/09/23 03:24:24;;;;;;;26.58;12.05;;;;;;;;;;10313757;23;20024;-87
2022/09/23 03:28:29;;;;;;;37.03;15.00;;;;;;;;;;10299711;22;20078;-87
2022/09/23 03:32:37;;;;;;;45.67;21.33;;;;;;;;;;10289692;23;20023;-86
2022/09/23 03:36:53;;;;;;;44.42;18.02;;;;;;;;;;10288320;23;20024;-87
2022/09/23 03:41:01;;;;;;;42.65;17.13;;;;;;;;;;10288647;23;20314;-87
2022/09/23 03:45:08;;;;;;;40.50;15.68;;;;;;;;;;10288008;23;20040;-87
2022/09/23 03:53:22;;;;;;;42.50;20.00;;;;;;;;;;10337592;23;20059;-86
2022/09/23 03:57:27;;;;;;;37.63;16.95;;;;;;;;;;10313375;23;20024;-86
2022/09/23 04:01:30;;;;;;;47.90;23.05;;;;;;;;;;10313561;23;20029;-88
2022/09/23 04:05:35;;;;;;;68.32;18.20;;;;;;;;;;10340225;23;20016;-86
2022/09/23 04:09:39;;;;;;;100.03;13.43;;;;;;;;;;10313100;23;20020;-87
2022/09/23 04:13:42;;;;;;;74.80;14.82;;;;;;;;;;10339265;23;20318;-86
2022/09/23 04:17:47;;;;;;;94.78;14.88;;;;;;;;;;10339651;23;20368;-87
2022/09/23 04:21:50;;;;;;;69.18;13.63;;;;;;;;;;10313328;23;20024;-84
2022/09/23 04:25:56;;;;;;;66.80;12.40;;;;;;;;;;10312749;23;20041;-86
2022/09/23 04:30:01;;;;;;;69.32;14.73;;;;;;;;;;10355861;23;20345;-87
2022/09/23 04:34:03;;;;;;;82.47;10.88;;;;;;;;;;10337808;23;20106;-88
2022/09/23 04:38:09;;;;;;;64.57;13.43;;;;;;;;;;10312799;23;20024;-86
2022/09/23 04:42:16;;;;;;;65.47;11.18;;;;;;;;;;10312835;23;20028;-87
2022/09/23 04:46:19;;;;;;;55.40;10.48;;;;;;;;;;10312680;23;20024;-86
2022/09/23 04:50:24;;;;;;;41.83;10.98;;;;;;;;;;10338887;23;20048;-88
2022/09/23 04:54:30;;;;;;;42.58;11.18;;;;;;;;;;10312701;23;20036;-88
2022/09/23 04:58:34;;;;;;;31.65;8.98;;;;;;;;;;10312690;23;20464;-87
2022/09/23 05:02:43;;;;;;;26.58;8.57;;;;;;;;;;10312319;23;20035;-87
2022/09/23 05:06:48;;;;;;;23.73;8.80;;;;;;;;;;10310698;23;20107;-88
2022/09/23 05:10:57;;;;;;;40.63;9.13;;;;;;;;;;10306734;23;20136;-87
2022/09/23 05:15:01;;;;;;;50.05;9.27;;;;;;;;;;10308266;23;20020;-87
2022/09/23 05:19:04;;;;;;;43.22;9.30;;;;;;;;;;10337872;23;20456;-87
2022/09/23 05:23:07;;;;;;;42.35;8.60;;;;;;;;;;10338794;23;20020;-87
2022/09/23 05:27:12;;;;;;;23.05;9.20;;;;;;;;;;10338929;23;20016;-87
2022/09/23 05:31:20;;;;;;;22.33;8.52;;;;;;;;;;10312097;23;20118;-86
2022/09/23 05:35:26;;;;;;;18.52;8.05;;;;;;;;;;10336504;23;20078;-87
2022/09/23 05:39:28;;;;;;;24.65;8.73;;;;;;;;;;10310749;23;20027;-88
2022/09/23 05:43:35;;;;;;;37.67;9.45;;;;;;;;;;10305507;23;20026;-88
2022/09/23 05:47:39;;;;;;;28.20;9.93;;;;;;;;;;10308188;23;20016;-88
2022/09/23 05:51:44;;;;;;;66.78;24.13;;;;;;;;;;10336126;23;20407;-87
2022/09/23 05:55:49;;;;;;;49.55;19.45;;;;;;;;;;10311660;23;20028;-87
2022/09/23 05:59:55;;;;;;;45.65;21.77;;;;;;;;;;10310842;23;20107;-87
2022/09/23 06:04:02;;;;;;;50.65;22.70;;;;;;;;;;10311480;23;20107;-87
2022/09/23 06:08:07;;;;;;;40.35;24.05;;;;;;;;;;10309852;23;20051;-87
2022/09/23 06:12:13;;;;;;;37.25;19.85;;;;;;;;;;10310414;23;20020;-87
2022/09/23 06:16:17;;;;;;;61.15;18.75;;;;;;;;;;10310450;23;20449;-87
2022/09/23 06:20:22;;;;;;;27.95;15.18;;;;;;;;;;10311291;23;20020;-87
2022/09/23 06:24:27;;;;;;;54.15;16.98;;;;;;;;;;10311086;23;20024;-88
2022/09/23 06:28:35;;;;;;;32.95;14.48;;;;;;;;;;10310811;23;20398;-88
2022/09/23 06:32:41;;;;;;;44.65;13.13;;;;;;;;;;10310938;23;20024;-87
2022/09/23 06:36:47;;;;;;;57.58;11.68;;;;;;;;;;10354354;23;20028;-86
2022/09/23 06:40:51;;;;;;;27.77;11.85;;;;;;;;;;10311039;23;20082;-87
2022/09/23 06:44:56;;;;;;;33.33;12.43;;;;;;;;;;10310877;23;20448;-88
2022/09/23 06:49:02;;;;;;;20.65;7.70;;;;;;;;;;10311275;23;20344;-87
2022/09/23 06:53:08;;;;;;;28.35;9.23;;;;;;;;;;10310304;23;20094;-88
2022/09/23 06:57:14;;;;;;;19.95;10.68;;;;;;;;;;10310440;23;20081;-89
2022/09/23 07:01:20;;;;;;;20.10;8.30;;;;;;;;;;10310634;23;20519;-88
2022/09/23 07:05:26;;;;;;;27.00;11.93;;;;;;;;;;10310652;23;20103;-88
2022/09/23 07:09:30;;;;;;;33.20;13.65;;;;;;;;;;10310670;23;20043;-87
2022/09/23 07:13:36;;;;;;;40.70;14.38;;;;;;;;;;10336965;23;20031;-89
2022/09/23 07:17:45;;;;;;;28.23;13.18;;;;;;;;;;10311113;23;20020;-88
2022/09/23 07:21:47;;;;;;;28.23;10.43;;;;;;;;;;10310643;23;20466;-88
2022/09/23 07:25:53;;;;;;;21.83;10.40;;;;;;;;;;10337580;23;20025;-87
2022/09/23 07:29:58;;;;;;;27.33;16.25;;;;;;;;;;10310848;23;20087;-87
2022/09/23 07:34:01;;;;;;;22.85;11.88;;;;;;;;;;10337001;23;20516;-88
2022/09/23 07:38:04;;;;;;;18.00;10.20;;;;;;;;;;10310568;23;20336;-87
2022/09/23 07:42:12;;;;;;;25.00;15.02;;;;;;;;;;10337002;23;20329;-87
2022/09/23 07:46:17;;;;;;;14.60;8.57;;;;;;;;;;10337140;23;20030;-87
2022/09/23 07:50:21;;;;;;;16.42;7.22;;;;;;;;;;10336827;23;20104;-87
2022/09/23 07:54:28;;;;;;;13.25;7.07;;;;;;;;;;10337017;23;20043;-87
2022/09/23 07:58:33;;;;;;;11.55;6.78;;;;;;;;;;10310530;23;20020;-88
2022/09/23 08:02:35;;;;;;;15.90;9.57;;;;;;;;;;10337015;23;20459;-87
2022/09/23 08:06:42;;;;;;;11.70;7.15;;;;;;;;;;10352291;23;20020;-87
2022/09/23 08:10:44;;;;;;;12.27;6.60;;;;;;;;;;10372290;23;20027;-87
2022/09/23 08:14:48;;;;;;;8.35;5.30;;;;;;;;;;10371986;23;20035;-87
2022/09/23 08:18:51;;;;;;;9.57;5.95;;;;;;;;;;10374508;23;20020;-88
2022/09/23 08:22:53;;;;;;;9.32;6.10;;;;;;;;;;10375073;23;20028;-87
2022/09/23 08:26:58;;;;;;;11.10;5.45;;;;;;;;;;10374076;23;20023;-87
2022/09/23 08:31:02;;;;;;;10.77;6.28;;;;;;;;;;10336670;23;20467;-88
2022/09/23 08:35:08;;;;;;;10.43;5.53;;;;;;;;;;10341049;23;20474;-88
2022/09/23 08:39:14;;;;;;;8.10;5.03;;;;;;;;;;10313642;23;20024;-87
2022/09/23 08:43:26;;;;;;;7.57;5.07;;;;;;;;;;10356823;23;20015;-88
2022/09/23 08:47:44;;;;;;;7.70;5.03;;;;;;;;;;10313029;23;20079;-87
2022/09/23 08:51:49;;;;;;;7.63;4.57;;;;;;;;;;10287372;23;20376;-88
2022/09/23 08:55:57;;;;;;;7.28;4.63;;;;;;;;;;10288855;23;20040;-89
2022/09/23 09:00:03;;;;;;;6.38;3.70;;;;;;;;;;10305089;23;20024;-87
2022/09/23 09:04:20;;;;;;;7.63;4.90;;;;;;;;;;10287673;23;20025;-87
2022/09/23 09:08:30;;;;;;;11.98;6.10;;;;;;;;;;10305179;23;20024;-88
2022/09/23 09:12:39;;;;;;;10.05;5.90;;;;;;;;;;10287376;23;20414;-89
2022/09/23 09:16:54;;;;;;;7.75;4.53;;;;;;;;;;10305165;23;20024;-88
2022/09/23 09:21:08;;;;;;;7.85;4.40;;;;;;;;;;10286947;23;20025;-87
2022/09/23 09:25:24;;;;;;;5.75;3.50;;;;;;;;;;10304971;23;20048;-88
2022/09/23 09:29:31;;;;;;;6.50;3.65;;;;;;;;;;10305023;23;20020;-88
2022/09/23 09:33:40;;;;;;;9.45;5.20;;;;;;;;;;10304973;23;20020;-88
2022/09/23 09:37:47;;;;;;;6.45;4.03;;;;;;;;;;10304686;23;20376;-89
2022/09/23 09:41:52;;;;;;;5.18;3.40;;;;;;;;;;10304786;23;20385;-89
2022/09/23 09:46:07;;;;;;;5.97;3.50;;;;;;;;;;10287716;23;20079;-88
2022/09/23 09:50:12;;;;;;;4.68;2.88;;;;;;;;;;10309520;23;20400;-88
2022/09/23 09:54:24;;;;;;;2.97;2.20;;;;;;;;;;10336784;23;20024;-89
2022/09/23 09:58:33;;;;;;;6.18;3.20;;;;;;;;;;10354671;23;20024;-89
2022/09/23 10:02:37;;;;;;;7.15;3.40;;;;;;;;;;10311704;23;20035;-89
2022/09/23 10:06:42;;;;;;;5.63;3.22;;;;;;;;;;10311251;23;20024;-90
2022/09/23 10:10:59;;;;;;;4.28;2.70;;;;;;;;;;10311388;23;20027;-90
2022/09/23 10:15:02;;;;;;;4.40;2.80;;;;;;;;;;10354733;23;20502;-88
2022/09/23 10:19:14;;;;;;;4.18;2.58;;;;;;;;;;10337483;23;20028;-89
2022/09/23 10:23:25;;;;;;;6.35;2.95;;;;;;;;;;10311076;23;20060;-88
2022/09/23 10:27:32;;;;;;;2.43;1.90;;;;;;;;;;10311295;23;20503;-88
2022/09/23 10:31:38;;;;;;;4.13;2.30;;;;;;;;;;10311027;23;20088;-88
2022/09/23 10:35:56;;;;;;;4.70;2.50;;;;;;;;;;10311335;23;20027;-90
2022/09/23 10:49:43;;;;;;;6.65;3.53;;;;;;;;;;10221552;23;20032;-89
2022/09/23 10:53:57;;;;;;;8.30;3.85;;;;;;;;;;10318732;23;20100;-90
2022/09/23 10:58:26;;;;;;;5.00;2.60;;;;;;;;;;10353700;23;20015;-88
2022/09/23 11:02:56;;;;;;;8.35;5.18;;;;;;;;;;10354080;23;20095;-90
2022/09/23 11:07:13;;;;;;;4.82;3.03;;;;;;;;;;10335946;23;20448;-87
2022/09/23 11:11:27;;;;;;;6.32;4.03;;;;;;;;;;10353921;23;20500;-89
2022/09/23 11:15:44;;;;;;;9.10;3.25;;;;;;;;;;10353734;23;20348;-88
2022/09/23 11:20:10;;;;;;;3.13;2.30;;;;;;;;;;10354295;23;20024;-89
2022/09/23 11:24:38;;;;;;;5.63;2.92;;;;;;;;;;10312096;23;20028;-89
2022/09/23 11:29:07;;;;;;;3.60;2.30;;;;;;;;;;10312653;22;20031;-89
2022/09/23 11:33:34;;;;;;;5.38;2.17;;;;;;;;;;10313803;23;20023;-90
2022/09/23 11:37:43;;;;;;;6.53;2.80;;;;;;;;;;10335835;23;20230;-89
2022/09/23 11:41:47;;;;;;;2.47;2.00;;;;;;;;;;10356265;23;20026;-88
2022/09/23 11:45:57;;;;;;;3.92;2.30;;;;;;;;;;10340500;23;20016;-90
2022/09/23 11:50:03;;;;;;;3.58;2.13;;;;;;;;;;10355409;23;20048;-90
2022/09/23 11:54:13;;;;;;;6.45;3.05;;;;;;;;;;10357078;23;20502;-89
2022/09/23 11:58:19;;;;;;;4.88;2.97;;;;;;;;;;10357153;23;20090;-88
2022/09/23 12:02:27;;;;;;;5.07;2.97;;;;;;;;;;10356966;23;20020;-88
2022/09/23 12:06:39;;;;;;;6.72;3.47;;;;;;;;;;10340537;23;20471;-88
2022/09/23 12:10:50;;;;;;;5.18;2.45;;;;;;;;;;10313556;23;20051;-87
2022/09/23 12:14:59;;;;;;;;;;;;;;;;;;10357042;23;20055;-87
2022/09/23 12:19:17;;;;;;;7.30;3.70;;;;;;;;;;10356606;23;20256;-87
2022/09/23 12:23:34;;;;;;;5.13;2.90;;;;;;;;;;10356546;23;20074;-87
2022/09/23 12:27:44;;;;;;;5.30;3.20;;;;;;;;;;10355980;23;20043;-87
2022/09/23 12:31:49;;;;;;;3.95;2.58;;;;;;;;;;10312666;23;20348;-87
2022/09/23 12:35:54;;;;;;;7.28;3.45;;;;;;;;;;10338819;23;20024;-88
2022/09/23 12:40:05;;;;;;;4.18;2.30;;;;;;;;;;10337490;23;20131;-87
2022/09/23 12:44:35;;;;;;;2.67;1.88;;;;;;;;;;10351323;23;20024;-88
2022/09/23 12:48:47;;;;;;;3.17;1.98;;;;;;;;;;10355303;23;20352;-88
2022/09/23 12:52:50;;;;;;;3.42;1.98;;;;;;;;;;10341794;23;20020;-87
2022/09/23 12:57:11;;;;;;;4.82;2.83;;;;;;;;;;10335028;23;20031;-89
2022/09/23 13:01:21;;;;;;;4.78;2.58;;;;;;;;;;10333693;23;20388;-89
2022/09/23 13:10:15;;;;;;;4.63;2.10;;;;;;;;;;10347959;23;20356;-90
2022/09/23 13:14:32;;;;;;;7.80;3.42;;;;;;;;;;10329460;22;20023;-89
2022/09/23 13:23:35;;;;;;;3.30;1.90;;;;;;;;;;10331139;22;20059;-89
2022/09/23 13:33:07;;;;;;;3.30;2.25;;;;;;;;;;10129155;23;20032;-90
2022/09/23 13:37:20;;;;;;;2.78;1.95;;;;;;;;;;10130300;23;20021;-89
2022/09/23 13:41:30;;;;;;;9.10;3.35;;;;;;;;;;10128648;23;20485;-91
2022/09/23 13:45:51;;;;;;;5.50;2.00;;;;;;;;;;10128886;23;20246;-89
2022/09/23 13:49:58;;;;;;;4.80;2.33;;;;;;;;;;10129013;23;20339;-89
2022/09/23 13:54:04;;;;;;;7.18;3.22;;;;;;;;;;10127913;23;20368;-88
2022/09/23 13:58:39;;;;;;;7.25;3.13;;;;;;;;;;10254654;22;20050;-90
2022/09/23 14:02:45;;;;;;;9.13;3.10;;;;;;;;;;10324733;22;20036;-89
2022/09/23 14:06:48;;;;;;;5.43;2.80;;;;;;;;;;10303629;23;20028;-88
2022/09/23 14:10:54;;;;;;;3.50;2.63;;;;;;;;;;10303095;23;20150;-89
2022/09/23 14:15:01;;;;;;;4.93;2.70;;;;;;;;;;10305460;23;20111;-88
2022/09/23 14:19:07;;;;;;;4.25;2.67;;;;;;;;;;10304331;23;20020;-87
2022/09/23 14:23:13;;;;;;;3.95;2.80;;;;;;;;;;10304374;23;20379;-87
2022/09/23 14:27:20;;;;;;;3.80;2.22;;;;;;;;;;10305116;23;20024;-89
2022/09/23 14:31:24;;;;;;;4.22;2.50;;;;;;;;;;10348969;23;20020;-89
2022/09/23 14:35:41;;;;;;;3.53;2.67;;;;;;;;;;10331341;23;20360;-88
2022/09/23 14:39:46;;;;;;;4.88;2.90;;;;;;;;;;10305229;23;20024;-87
2022/09/23 14:43:51;;;;;;;4.45;3.10;;;;;;;;;;10348808;23;20119;-87
2022/09/23 14:47:59;;;;;;;10.45;3.38;;;;;;;;;;10347166;23;20019;-89
2022/09/23 14:52:07;;;;;;;10.13;3.75;;;;;;;;;;10347455;23;20028;-89
2022/09/23 14:56:15;;;;;;;7.22;3.47;;;;;;;;;;10348377;23;20050;-88
2022/09/23 15:00:23;;;;;;;5.07;3.10;;;;;;;;;;10336844;23;20020;-88
2022/09/23 15:04:34;;;;;;;6.38;3.38;;;;;;;;;;10303436;23;20452;-87
2022/09/23 15:08:41;;;;;;;6.50;3.22;;;;;;;;;;10303529;23;20030;-89
2022/09/23 15:12:49;;;;;;;5.50;3.50;;;;;;;;;;10303066;23;20043;-88
2022/09/23 15:16:53;;;;;;;6.53;3.33;;;;;;;;;;10304084;23;20441;-88
2022/09/23 15:21:01;;;;;;;6.53;3.38;;;;;;;;;;10330206;23;20067;-88
2022/09/23 15:25:16;;;;;;;6.30;3.85;;;;;;;;;;10345630;23;20023;-88
2022/09/23 15:29:18;;;;;;;5.72;3.50;;;;;;;;;;10346760;23;20086;-88
2022/09/23 15:33:26;;;;;;;6.63;3.90;;;;;;;;;;10346172;23;20023;-88
2022/09/23 15:37:31;;;;;;;5.78;3.63;;;;;;;;;;10330464;23;20020;-88
2022/09/23 15:41:34;;;;;;;6.03;3.80;;;;;;;;;;10330657;23;20329;-89
2022/09/23 15:45:44;;;;;;;4.35;3.40;;;;;;;;;;10330744;23;20016;-87
2022/09/23 15:49:47;;;;;;;7.03;4.22;;;;;;;;;;10347627;23;20095;-87
2022/09/23 15:53:51;;;;;;;7.18;4.03;;;;;;;;;;10329331;23;20020;-87
2022/09/23 15:57:54;;;;;;;6.85;4.72;;;;;;;;;;10329491;23;20425;-88
2022/09/23 16:01:57;;;;;;;8.07;5.40;;;;;;;;;;10343020;23;20051;-88
2022/09/23 16:06:02;;;;;;;9.15;5.75;;;;;;;;;;10330744;23;20048;-88
2022/09/23 16:10:08;;;;;;;13.57;8.88;;;;;;;;;;10330968;23;20028;-88
2022/09/23 16:14:16;;;;;;;13.95;7.85;;;;;;;;;;10346681;23;20028;-88
2022/09/23 16:18:23;;;;;;;17.50;9.40;;;;;;;;;;10304283;23;20047;-88
2022/09/23 16:22:28;;;;;;;19.00;11.00;;;;;;;;;;10304152;23;20027;-88
2022/09/23 16:26:38;;;;;;;26.02;14.23;;;;;;;;;;10303811;23;20020;-88
2022/09/23 16:30:41;;;;;;;31.27;17.95;;;;;;;;;;10349871;23;20065;-88
2022/09/23 16:34:43;;;;;;;43.15;22.10;;;;;;;;;;10332559;23;20032;-88
2022/09/23 16:38:47;;;;;;;43.85;22.05;;;;;;;;;;10333388;23;20035;-89
2022/09/23 16:42:57;;;;;;;41.90;20.27;;;;;;;;;;10305339;23;20387;-88
2022/09/23 16:47:00;;;;;;;32.85;17.08;;;;;;;;;;10306667;23;20028;-87
2022/09/23 16:51:03;;;;;;;23.38;13.48;;;;;;;;;;10305587;23;20056;-88
2022/09/23 16:55:09;;;;;;;22.77;13.43;;;;;;;;;;10333907;23;20095;-88
2022/09/23 16:59:18;;;;;;;21.30;11.98;;;;;;;;;;10306575;23;20425;-88
2022/09/23 17:03:39;;;;;;;23.45;12.38;;;;;;;;;;10349339;23;20062;-88
2022/09/23 17:07:45;;;;;;;95.47;48.03;;;;;;;;;;10349945;23;20533;-87
2022/09/23 17:11:57;;;;;;;58.40;33.78;;;;;;;;;;10303786;23;20035;-88
2022/09/23 17:16:02;;;;;;;61.35;31.40;;;;;;;;;;10348747;23;20069;-87
2022/09/23 17:20:07;;;;;;;39.65;23.17;;;;;;;;;;10306439;23;20027;-88
2022/09/23 17:24:12;;;;;;;38.38;23.95;;;;;;;;;;10250164;23;20031;-88
2022/09/23 17:37:48;;;;;;;32.85;19.13;;;;;;;;;;10201476;23;20021;-89
2022/09/23 17:41:57;;;;;;;26.35;15.70;;;;;;;;;;10187395;23;20477;-88
2022/09/23 17:46:08;;;;;;;24.85;12.82;;;;;;;;;;10161121;23;20459;-87
2022/09/23 17:50:13;;;;;;;25.73;13.60;;;;;;;;;;10185866;23;20029;-86
2022/09/23 17:54:21;;;;;;;27.25;15.90;;;;;;;;;;10187645;23;20072;-86
2022/09/23 17:58:29;;;;;;;26.42;15.00;;;;;;;;;;10161419;23;20454;-87
2022/09/23 18:23:47;;;;;;;43.97;26.27;;;;;;;;;;10018014;23;20491;-88
2022/09/23 18:27:51;;;;;;;27.25;15.95;;;;;;;;;;10278356;23;20028;-88
2022/09/23 18:31:55;;;;;;;20.13;11.60;;;;;;;;;;10260795;23;20032;-87
2022/09/23 18:36:11;;;;;;;58.75;29.00;;;;;;;;;;10261443;23;20026;-88
2022/09/23 18:40:18;;;;;;;36.70;23.90;;;;;;;;;;10261572;23;20020;-87
2022/09/23 18:44:28;;;;;;;35.33;18.67;;;;;;;;;;10304209;23;20044;-88
2022/09/23 18:53:01;;;;;;;51.10;29.67;;;;;;;;;;10260634;23;20048;-88
2022/09/23 18:57:13;;;;;;;37.35;19.73;;;;;;;;;;10287664;23;20400;-87
2022/09/23 19:01:18;;;;;;;55.08;22.98;;;;;;;;;;10261656;23;20025;-86
2022/09/23 19:05:24;;;;;;;21.77;13.80;;;;;;;;;;10269835;23;20024;-86
2022/09/23 19:09:31;;;;;;;24.70;14.13;;;;;;;;;;10287938;23;20025;-87
2022/09/23 19:17:47;;;;;;;16.15;10.20;;;;;;;;;;10332625;22;20047;-88
2022/09/23 19:21:50;;;;;;;16.55;9.18;;;;;;;;;;10356717;23;20066;-87
2022/09/23 19:25:54;;;;;;;18.73;11.38;;;;;;;;;;10339757;23;20047;-86
2022/09/23 19:30:00;;;;;;;474.80;138.45;;;;;;;;;;10359044;23;20036;-87
2022/09/23 19:34:08;;;;;;;57.35;28.40;;;;;;;;;;10332367;23;20050;-88
2022/09/23 19:38:13;;;;;;;40.80;17.63;;;;;;;;;;10385938;23;20020;-86
2022/09/23 19:42:19;;;;;;;30.40;13.13;;;;;;;;;;10385525;23;20026;-87
2022/09/23 19:46:22;;;;;;;86.43;36.47;;;;;;;;;;10371484;23;20024;-88
2022/09/23 19:50:29;;;;;;;103.40;41.17;;;;;;;;;;10368202;23;20023;-87
2022/09/23 19:54:37;;;;;;;36.70;19.42;;;;;;;;;;10387031;23;20257;-88
2022/09/23 19:58:46;;;;;;;109.22;39.35;;;;;;;;;;10344403;23;20024;-87
2022/09/23 20:02:50;;;;;;;69.03;27.95;;;;;;;;;;10335476;23;20020;-87
2022/09/23 20:06:56;;;;;;;24.42;14.85;;;;;;;;;;10315302;23;20082;-87
2022/09/23 20:11:02;;;;;;;30.02;15.93;;;;;;;;;;10314712;23;20020;-87
2022/09/23 20:15:08;;;;;;;64.65;21.02;;;;;;;;;;10311144;23;20108;-87
2022/09/23 20:19:18;;;;;;;27.00;12.48;;;;;;;;;;10310554;23;20020;-87
2022/09/23 20:23:25;;;;;;;22.52;10.05;;;;;;;;;;10310189;23;20445;-88
2022/09/23 20:27:33;;;;;;;56.13;25.55;;;;;;;;;;10310646;23;20329;-87
2022/09/23 20:31:39;;;;;;;24.67;12.93;;;;;;;;;;10313382;23;20028;-87
2022/09/23 20:35:52;;;;;;;72.45;26.60;;;;;;;;;;10313288;23;20091;-86
2022/09/23 20:40:01;;;;;;;32.33;16.05;;;;;;;;;;10339991;23;20028;-86
2022/09/23 20:44:10;;;;;;;59.55;21.45;;;;;;;;;;10312679;23;20074;-86
2022/09/23 20:48:16;;;;;;;68.55;26.45;;;;;;;;;;10312574;23;20028;-87
2022/09/23 22:05:11;;;;;;;36.63;17.50;;;;;;;;;;10304620;22;20349;-86
2022/09/23 22:09:19;;;;;;;33.90;17.42;;;;;;;;;;10303128;23;20024;-88
2022/09/23 22:13:22;;;;;;;28.23;14.80;;;;;;;;;;10287229;23;20020;-87
2022/09/23 22:17:25;;;;;;;28.25;14.23;;;;;;;;;;10286725;23;20031;-89
2022/09/23 22:21:30;;;;;;;29.65;15.43;;;;;;;;;;10286734;23;20027;-88
2022/09/23 22:25:32;;;;;;;28.27;15.07;;;;;;;;;;10302602;23;20433;-89
2022/09/23 22:33:57;;;;;;;55.08;23.40;;;;;;;;;;10285537;23;20416;-86
2022/09/23 22:38:01;;;;;;;55.45;22.70;;;;;;;;;;10286151;23;20025;-87
2022/09/23 22:42:06;;;;;;;30.98;14.02;;;;;;;;;;10286896;23;20453;-87
2022/09/23 22:46:11;;;;;;;24.63;12.80;;;;;;;;;;10285295;23;20021;-88
2022/09/23 22:50:17;;;;;;;24.05;12.55;;;;;;;;;;10284790;23;20025;-89
2022/09/23 22:54:25;;;;;;;22.85;12.88;;;;;;;;;;10285225;23;20025;-87
2022/09/23 22:58:30;;;;;;;25.48;11.88;;;;;;;;;;10285445;23;20028;-87
2022/09/23 23:02:36;;;;;;;25.75;12.77;;;;;;;;;;10285086;23;20469;-87
2022/09/23 23:06:42;;;;;;;24.67;13.07;;;;;;;;;;10284733;23;20039;-86
2022/09/23 23:10:48;;;;;;;66.55;23.63;;;;;;;;;;10285257;23;20024;-88
2022/09/23 23:14:54;;;;;;;52.80;21.35;;;;;;;;;;10284713;23;20031;-87
2022/09/23 23:19:02;;;;;;;30.92;16.70;;;;;;;;;;10284275;23;20027;-86
2022/09/23 23:23:08;;;;;;;32.45;16.85;;;;;;;;;;10285009;23;20334;-88
2022/09/23 23:27:14;;;;;;;36.22;19.25;;;;;;;;;;10284583;23;20100;-88
2022/09/23 23:31:20;;;;;;;29.45;15.73;;;;;;;;;;10283142;23;20108;-87
2022/09/23 23:35:24;;;;;;;30.05;14.73;;;;;;;;;;10285211;23;20340;-86
2022/09/23 23:39:29;;;;;;;32.42;16.30;;;;;;;;;;10286088;23;20107;-87
2022/09/23 23:43:36;;;;;;;27.42;13.48;;;;;;;;;;10289375;23;20025;-86
2022/09/23 23:47:41;;;;;;;26.08;14.07;;;;;;;;;;10289120;23;20020;-88
2022/09/23 23:51:46;;;;;;;33.20;16.67;;;;;;;;;;10288364;23;20028;-86
2022/09/23 23:55:50;;;;;;;30.55;15.35;;;;;;;;;;10288724;23;20025;-85
2022/09/23 23:59:58;;;;;;;27.70;14.27;;;;;;;;;;10287218;23;20025;-86
